createdAt,value
2019-02-25T00:02:19.750Z,6.20
2019-02-25T00:04:47.205Z,6.20
2019-02-25T00:07:14.689Z,6.00
2019-02-25T00:09:42.156Z,6.00
2019-02-25T00:12:09.629Z,5.90
2019-02-25T00:14:37.168Z,5.90
2019-02-25T00:17:04.632Z,6.00
2019-02-25T00:19:32.201Z,5.90
2019-02-25T00:21:59.757Z,5.70
2019-02-25T00:24:27.210Z,5.80
2019-02-25T00:26:54.673Z,5.90
2019-02-25T00:29:22.139Z,5.70
2019-02-25T00:31:49.615Z,5.60
2019-02-25T00:34:17.090Z,5.40
2019-02-25T00:36:44.553Z,5.40
2019-02-25T00:39:13.694Z,5.60
2019-02-25T00:41:41.212Z,5.60
2019-02-25T00:44:08.738Z,5.50
2019-02-25T00:46:36.226Z,5.50
2019-02-25T00:49:04.697Z,5.60
2019-02-25T00:51:32.161Z,5.60
2019-02-25T00:53:59.623Z,5.50
2019-02-25T00:56:27.081Z,5.60
2019-02-25T00:58:54.652Z,5.60
2019-02-25T01:01:22.109Z,5.60
2019-02-25T01:03:49.621Z,5.40
2019-02-25T01:06:17.056Z,5.20
2019-02-25T01:08:44.609Z,5.30
2019-02-25T01:11:12.171Z,5.30
2019-02-25T01:13:39.741Z,5.30
2019-02-25T01:16:08.714Z,5.60
2019-02-25T01:18:36.169Z,5.60
2019-02-25T01:21:04.562Z,5.60
2019-02-25T01:23:32.026Z,5.60
2019-02-25T01:25:59.481Z,5.50
2019-02-25T01:28:26.948Z,5.20
2019-02-25T01:30:54.400Z,5.20
2019-02-25T01:33:21.950Z,4.90
2019-02-25T01:35:49.462Z,4.60
2019-02-25T01:38:17.073Z,4.40
2019-02-25T01:40:44.538Z,4.40
2019-02-25T01:43:12.001Z,4.40
2019-02-25T01:45:39.464Z,4.60
2019-02-25T01:48:06.977Z,4.70
2019-02-25T01:50:34.435Z,4.90
2019-02-25T01:53:01.893Z,4.60
2019-02-25T01:55:29.351Z,4.60
2019-02-25T01:57:56.930Z,4.60
2019-02-25T02:00:24.377Z,4.70
2019-02-25T02:02:51.950Z,5.00
2019-02-25T02:05:19.412Z,5.10
2019-02-25T02:07:46.884Z,5.00
2019-02-25T02:10:15.026Z,5.00
2019-02-25T02:12:42.468Z,5.00
2019-02-25T02:15:11.719Z,4.90
2019-02-25T02:17:39.175Z,4.90
2019-02-25T02:20:07.449Z,4.40
2019-02-25T02:22:35.034Z,4.40
2019-02-25T02:25:02.597Z,4.30
2019-02-25T02:27:30.166Z,4.70
2019-02-25T02:29:58.438Z,5.00
2019-02-25T02:32:26.013Z,5.00
2019-02-25T02:34:54.254Z,5.00
2019-02-25T02:37:21.841Z,5.00
2019-02-25T02:39:49.300Z,4.90
2019-02-25T02:42:16.857Z,4.80
2019-02-25T02:44:44.332Z,4.60
2019-02-25T02:47:37.322Z,4.50
2019-02-25T02:50:07.211Z,4.60
2019-02-25T02:52:35.462Z,4.50
2019-02-25T02:55:04.249Z,4.40
2019-02-25T02:57:31.725Z,4.30
2019-02-25T02:59:59.996Z,4.60
2019-02-25T03:02:27.442Z,4.50
2019-02-25T03:04:54.898Z,4.90
2019-02-25T03:07:22.369Z,5.00
2019-02-25T03:09:49.833Z,4.90
2019-02-25T03:12:17.295Z,4.70
2019-02-25T03:14:44.762Z,4.60
2019-02-25T03:17:12.318Z,4.60
2019-02-25T03:19:39.775Z,4.80
2019-02-25T03:22:07.253Z,5.00
2019-02-25T03:24:34.724Z,5.40
2019-02-25T03:27:02.223Z,5.40
2019-02-25T03:29:30.392Z,5.10
2019-02-25T03:31:58.654Z,5.10
2019-02-25T03:34:26.097Z,5.10
2019-02-25T03:36:53.546Z,5.20
2019-02-25T03:39:20.997Z,5.00
2019-02-25T03:41:48.502Z,5.20
2019-02-25T03:44:16.766Z,4.80
2019-02-25T03:46:44.235Z,4.80
2019-02-25T03:49:11.693Z,4.80
2019-02-25T03:51:39.161Z,4.70
2019-02-25T03:54:07.435Z,4.90
2019-02-25T03:56:34.904Z,4.90
2019-02-25T03:59:02.458Z,4.90
2019-02-25T04:01:30.690Z,4.80
2019-02-25T04:03:58.165Z,4.80
2019-02-25T04:06:25.631Z,4.70
2019-02-25T04:08:53.117Z,4.60
2019-02-25T04:11:20.677Z,4.50
2019-02-25T04:13:48.229Z,4.70
2019-02-25T04:16:15.758Z,4.50
2019-02-25T04:18:43.275Z,4.30
2019-02-25T04:21:10.717Z,4.40
2019-02-25T04:23:38.296Z,4.50
2019-02-25T04:26:05.742Z,4.60
2019-02-25T04:28:33.208Z,4.60
2019-02-25T04:31:00.693Z,4.50
2019-02-25T04:33:28.156Z,4.40
2019-02-25T04:35:55.718Z,4.40
2019-02-25T04:38:23.173Z,4.30
2019-02-25T04:40:50.642Z,4.30
2019-02-25T04:43:18.098Z,4.20
2019-02-25T04:45:45.569Z,4.20
2019-02-25T04:48:13.027Z,4.30
2019-02-25T04:50:40.481Z,4.20
2019-02-25T04:53:07.945Z,4.30
2019-02-25T04:55:36.190Z,4.30
2019-02-25T04:58:04.673Z,4.20
2019-02-25T05:00:32.130Z,4.20
2019-02-25T05:02:59.587Z,4.10
2019-02-25T05:05:27.051Z,4.20
2019-02-25T05:07:54.554Z,4.10
2019-02-25T05:10:22.032Z,3.90
2019-02-25T05:12:49.485Z,3.90
2019-02-25T05:15:18.623Z,3.80
2019-02-25T05:17:46.143Z,3.80
2019-02-25T05:20:13.610Z,3.80
2019-02-25T05:22:41.056Z,3.80
2019-02-25T05:25:08.521Z,4.00
2019-02-25T05:27:35.990Z,3.80
2019-02-25T05:30:04.575Z,3.50
2019-02-25T05:32:32.151Z,3.50
2019-02-25T05:34:59.598Z,3.80
2019-02-25T05:37:27.062Z,3.80
2019-02-25T05:39:54.629Z,3.80
2019-02-25T05:42:22.861Z,4.20
2019-02-25T05:44:50.352Z,4.20
2019-02-25T05:47:17.826Z,4.40
2019-02-25T05:49:45.294Z,4.40
2019-02-25T05:52:14.263Z,4.60
2019-02-25T05:54:41.721Z,4.50
2019-02-25T05:57:09.185Z,4.70
2019-02-25T05:59:36.661Z,4.70
2019-02-25T06:02:05.487Z,4.80
2019-02-25T06:04:31.595Z,4.80
2019-02-25T06:06:59.160Z,4.80
2019-02-25T06:09:27.435Z,4.60
2019-02-25T06:11:55.016Z,4.60
2019-02-25T06:14:22.640Z,4.70
2019-02-25T06:16:50.100Z,4.70
2019-02-25T06:19:17.633Z,4.70
2019-02-25T06:21:45.867Z,4.70
2019-02-25T06:24:13.338Z,4.70
2019-02-25T06:26:40.888Z,4.50
2019-02-25T06:29:09.169Z,4.40
2019-02-25T06:31:36.754Z,4.40
2019-02-25T06:34:04.221Z,4.20
2019-02-25T06:36:31.717Z,4.20
2019-02-25T06:38:59.229Z,4.10
2019-02-25T06:41:26.797Z,3.90
2019-02-25T06:43:54.241Z,4.00
2019-02-25T06:46:21.716Z,4.00
2019-02-25T06:48:49.278Z,3.90
2019-02-25T06:51:16.749Z,4.00
2019-02-25T06:53:44.311Z,4.00
2019-02-25T06:56:11.783Z,3.90
2019-02-25T06:58:39.245Z,3.90
2019-02-25T07:01:06.921Z,3.80
2019-02-25T07:03:34.593Z,3.80
2019-02-25T07:06:07.399Z,3.90
2019-02-25T07:08:38.775Z,3.90
2019-02-25T07:11:11.284Z,3.80
2019-02-25T07:13:42.619Z,3.60
2019-02-25T07:16:30.769Z,3.70
2019-02-25T07:22:06.497Z,3.80
2019-02-25T07:24:37.394Z,3.80
2019-02-25T07:27:22.319Z,4.00
2019-02-25T07:30:07.326Z,4.10
2019-02-25T07:32:38.638Z,4.00
2019-02-25T07:35:13.366Z,4.30
2019-02-25T07:37:46.617Z,4.30
2019-02-25T07:40:19.606Z,4.40
2019-02-25T07:42:47.074Z,4.40
2019-02-25T07:45:15.475Z,4.50
2019-02-25T07:47:42.928Z,4.60
2019-02-25T07:50:11.976Z,4.60
2019-02-25T07:52:40.195Z,4.90
2019-02-25T07:58:06.538Z,5.10
2019-02-25T08:00:39.666Z,5.10
2019-02-25T08:03:22.782Z,5.10
2019-02-25T08:05:53.125Z,5.10
2019-02-25T08:08:23.317Z,5.40
2019-02-25T08:11:05.658Z,5.30
2019-02-25T08:13:35.469Z,5.40
2019-02-25T08:16:04.690Z,5.60
2019-02-25T08:18:33.705Z,5.70
2019-02-25T08:21:07.705Z,6.20
2019-02-25T08:23:36.081Z,6.20
2019-02-25T08:26:13.185Z,6.70
2019-02-25T08:28:45.301Z,6.70
2019-02-25T08:31:13.523Z,6.90
2019-02-25T08:33:43.897Z,6.90
2019-02-25T08:39:28.631Z,7.80
2019-02-25T08:41:56.086Z,7.80
2019-02-25T08:44:24.357Z,7.90
2019-02-25T08:46:51.833Z,8.00
2019-02-25T08:49:20.206Z,8.00
2019-02-25T08:51:47.661Z,8.00
2019-02-25T08:54:15.181Z,8.30
2019-02-25T08:56:43.862Z,9.40
2019-02-25T08:59:12.109Z,9.80
2019-02-25T09:01:39.702Z,9.70
2019-02-25T09:04:07.257Z,9.80
2019-02-25T09:06:34.818Z,10.10
2019-02-25T09:09:02.303Z,10.40
2019-02-25T09:11:30.524Z,11.00
2019-02-25T09:13:57.988Z,11.00
2019-02-25T09:16:25.450Z,11.30
2019-02-25T09:18:52.909Z,11.50
2019-02-25T09:21:20.406Z,11.60
2019-02-25T09:23:47.880Z,11.70
2019-02-25T09:26:16.841Z,11.80
2019-02-25T09:28:44.328Z,11.80
2019-02-25T09:31:11.903Z,12.00
2019-02-25T09:33:39.441Z,12.10
2019-02-25T09:36:06.906Z,12.10
2019-02-25T09:38:35.205Z,12.30
2019-02-25T09:41:02.711Z,12.20
2019-02-25T09:43:30.174Z,12.20
2019-02-25T09:45:57.687Z,12.00
2019-02-25T09:48:25.148Z,11.90
2019-02-25T09:50:52.634Z,11.80
2019-02-25T09:53:20.920Z,11.70
2019-02-25T09:55:49.143Z,11.90
2019-02-25T09:58:16.607Z,11.90
2019-02-25T10:00:46.042Z,11.70
2019-02-25T10:03:11.570Z,11.70
2019-02-25T10:05:39.111Z,11.60
2019-02-25T10:08:06.589Z,11.70
2019-02-25T10:10:34.049Z,11.90
2019-02-25T10:13:01.618Z,12.20
2019-02-25T10:15:29.075Z,12.20
2019-02-25T10:17:56.531Z,12.70
2019-02-25T10:20:24.099Z,12.90
2019-02-25T10:22:51.653Z,13.20
2019-02-25T10:25:19.252Z,13.50
2019-02-25T10:27:49.535Z,14.00
2019-02-25T10:30:16.692Z,13.90
2019-02-25T10:32:44.168Z,13.90
2019-02-25T10:35:12.450Z,14.00
2019-02-25T10:37:41.371Z,14.20
2019-02-25T10:40:07.534Z,14.20
2019-02-25T10:42:36.118Z,13.80
2019-02-25T10:45:04.798Z,14.00
2019-02-25T10:47:31.693Z,14.20
2019-02-25T10:50:00.797Z,14.20
2019-02-25T10:52:27.429Z,14.30
2019-02-25T10:54:56.197Z,14.30
2019-02-25T10:57:24.545Z,14.70
2019-02-25T10:59:49.864Z,14.60
2019-02-25T11:02:19.519Z,14.80
2019-02-25T11:04:47.394Z,15.00
2019-02-25T11:07:14.677Z,15.00
2019-02-25T11:09:43.971Z,15.10
2019-02-25T11:12:09.712Z,15.20
2019-02-25T11:14:38.980Z,15.20
2019-02-25T11:17:05.554Z,15.70
2019-02-25T11:19:33.042Z,15.70
2019-02-25T11:22:01.267Z,15.90
2019-02-25T11:24:28.728Z,15.80
2019-02-25T11:26:56.971Z,15.90
2019-02-25T11:29:23.675Z,15.70
2019-02-25T11:31:51.587Z,16.10
2019-02-25T11:34:18.693Z,16.50
2019-02-25T11:36:47.681Z,16.60
2019-02-25T11:39:13.649Z,16.60
2019-02-25T11:41:41.173Z,16.50
2019-02-25T11:44:08.630Z,16.30
2019-02-25T11:46:36.086Z,16.30
2019-02-25T11:49:04.573Z,16.40
2019-02-25T11:51:32.062Z,16.40
2019-02-25T11:53:59.597Z,16.50
2019-02-25T11:56:27.831Z,16.80
2019-02-25T11:58:56.081Z,16.70
2019-02-25T12:01:23.528Z,16.70
2019-02-25T12:03:50.988Z,16.70
2019-02-25T12:06:18.449Z,16.60
2019-02-25T12:08:45.912Z,16.70
2019-02-25T12:11:13.403Z,16.80
2019-02-25T12:13:41.634Z,16.70
2019-02-25T12:16:09.101Z,16.70
2019-02-25T12:18:36.557Z,16.60
2019-02-25T12:21:04.014Z,16.70
2019-02-25T12:23:31.470Z,16.80
2019-02-25T12:25:58.934Z,16.70
2019-02-25T12:28:26.444Z,16.50
2019-02-25T12:30:53.903Z,16.70
2019-02-25T12:33:21.493Z,16.60
2019-02-25T12:35:49.759Z,16.50
2019-02-25T12:38:17.226Z,16.50
2019-02-25T12:40:44.750Z,16.50
2019-02-25T12:43:12.254Z,16.30
2019-02-25T12:45:39.723Z,16.00
2019-02-25T12:48:08.039Z,16.30
2019-02-25T12:50:35.484Z,16.30
2019-02-25T12:53:04.395Z,16.10
2019-02-25T12:55:31.889Z,16.00
2019-02-25T12:57:59.354Z,15.60
2019-02-25T13:00:26.881Z,15.00
2019-02-25T13:02:54.321Z,15.10
2019-02-25T13:05:23.397Z,14.50
2019-02-25T13:07:50.839Z,14.40
2019-02-25T13:10:18.419Z,14.10
2019-02-25T13:12:45.873Z,14.20
2019-02-25T13:15:18.051Z,14.00
2019-02-25T13:17:45.531Z,14.10
2019-02-25T13:20:13.076Z,14.40
2019-02-25T13:22:40.549Z,14.10
2019-02-25T13:25:10.684Z,14.50
2019-02-25T13:27:37.131Z,14.50
2019-02-25T13:30:07.463Z,14.50
2019-02-25T13:32:34.934Z,14.50
2019-02-25T13:35:02.460Z,14.30
2019-02-25T13:37:30.737Z,14.70
2019-02-25T13:39:58.301Z,14.70
2019-02-25T13:42:25.763Z,14.40
2019-02-25T13:44:53.319Z,14.60
2019-02-25T13:47:20.791Z,14.90
2019-02-25T13:49:48.256Z,15.00
2019-02-25T13:52:15.726Z,15.10
2019-02-25T13:54:43.957Z,14.30
2019-02-25T13:57:11.432Z,14.30
2019-02-25T13:59:38.898Z,14.10
2019-02-25T14:02:06.362Z,14.10
2019-02-25T14:04:33.848Z,14.20
2019-02-25T14:07:01.314Z,14.50
2019-02-25T14:09:28.769Z,14.30
2019-02-25T14:11:57.322Z,14.50
2019-02-25T14:14:24.785Z,14.50
2019-02-25T14:16:52.279Z,14.90
2019-02-25T14:19:19.836Z,15.00
2019-02-25T14:21:47.300Z,14.90
2019-02-25T14:24:14.776Z,14.50
2019-02-25T14:26:43.040Z,14.30
2019-02-25T14:29:11.322Z,14.20
2019-02-25T14:31:38.894Z,14.20
2019-02-25T14:34:06.385Z,14.50
2019-02-25T14:36:34.652Z,15.00
2019-02-25T14:39:04.537Z,14.90
2019-02-25T14:41:31.307Z,14.90
2019-02-25T14:43:58.896Z,14.90
2019-02-25T14:46:26.831Z,14.80
2019-02-25T14:48:53.985Z,14.70
2019-02-25T14:51:21.546Z,14.60
2019-02-25T14:53:50.044Z,14.50
2019-02-25T14:56:16.686Z,14.40
2019-02-25T14:58:45.571Z,14.60
2019-02-25T15:01:11.692Z,14.50
2019-02-25T15:03:39.168Z,14.40
2019-02-25T15:06:06.686Z,14.40
2019-02-25T15:08:34.195Z,14.60
2019-02-25T15:11:02.431Z,14.70
2019-02-25T15:13:30.362Z,14.60
2019-02-25T15:15:56.824Z,14.40
2019-02-25T15:18:25.188Z,14.60
2019-02-25T15:20:51.759Z,14.50
2019-02-25T15:23:22.565Z,14.50
2019-02-25T15:25:47.197Z,14.50
2019-02-25T15:28:16.131Z,14.40
2019-02-25T15:30:42.577Z,14.40
2019-02-25T15:33:10.054Z,14.40
2019-02-25T15:35:39.364Z,14.40
2019-02-25T15:38:05.190Z,14.40
2019-02-25T15:40:33.443Z,14.40
2019-02-25T15:43:00.923Z,14.40
2019-02-25T15:45:30.704Z,14.20
2019-02-25T15:47:57.746Z,14.20
2019-02-25T15:50:24.221Z,14.00
2019-02-25T15:52:51.696Z,13.90
2019-02-25T15:55:21.254Z,13.90
2019-02-25T15:57:47.430Z,13.90
2019-02-25T16:00:16.391Z,13.80
2019-02-25T16:02:43.907Z,13.70
2019-02-25T16:05:12.159Z,13.60
2019-02-25T16:07:40.214Z,13.60
2019-02-25T16:10:09.527Z,13.90
2019-02-25T16:12:36.090Z,13.80
2019-02-25T16:15:02.267Z,13.60
2019-02-25T16:17:29.754Z,13.60
2019-02-25T16:19:57.358Z,13.60
2019-02-25T16:22:26.229Z,13.60
2019-02-25T16:24:54.007Z,13.50
2019-02-25T16:27:23.135Z,13.50
2019-02-25T16:29:49.776Z,13.50
2019-02-25T16:32:19.270Z,13.50
2019-02-25T16:34:47.727Z,13.30
2019-02-25T16:37:17.677Z,13.30
2019-02-25T16:39:42.829Z,13.20
2019-02-25T16:42:10.332Z,13.20
2019-02-25T16:44:38.593Z,13.20
2019-02-25T16:47:07.885Z,13.20
2019-02-25T16:49:34.322Z,13.30
2019-02-25T16:52:02.134Z,13.20
2019-02-25T16:54:28.557Z,13.20
2019-02-25T16:56:56.865Z,12.90
2019-02-25T16:59:24.996Z,12.90
2019-02-25T17:01:51.788Z,12.90
2019-02-25T17:04:22.723Z,12.70
2019-02-25T17:06:49.139Z,12.70
2019-02-25T17:09:18.173Z,12.60
2019-02-25T17:11:45.983Z,12.60
2019-02-25T17:14:11.591Z,12.50
2019-02-25T17:16:39.123Z,12.40
2019-02-25T17:19:06.584Z,12.30
2019-02-25T17:21:34.831Z,12.10
2019-02-25T17:24:04.987Z,12.10
2019-02-25T17:26:31.301Z,12.00
2019-02-25T17:28:58.762Z,11.90
2019-02-25T17:31:27.003Z,11.80
2019-02-25T17:33:55.838Z,11.80
2019-02-25T17:36:22.041Z,11.70
2019-02-25T17:38:50.175Z,11.70
2019-02-25T17:41:17.087Z,11.60
2019-02-25T17:43:44.580Z,11.50
2019-02-25T17:46:14.495Z,11.40
2019-02-25T17:48:40.312Z,11.40
2019-02-25T17:51:07.777Z,11.40
2019-02-25T17:53:35.338Z,11.30
2019-02-25T17:56:04.493Z,11.20
2019-02-25T17:58:32.193Z,11.20
2019-02-25T18:01:10.207Z,11.20
2019-02-25T18:03:39.627Z,11.10
2019-02-25T18:06:07.367Z,11.00
2019-02-25T18:08:34.273Z,11.00
2019-02-25T18:11:00.466Z,11.00
2019-02-25T18:13:28.170Z,10.80
2019-02-25T18:15:56.262Z,10.80
2019-02-25T18:18:24.557Z,10.80
2019-02-25T18:20:52.853Z,10.70
2019-02-25T18:23:21.346Z,10.80
2019-02-25T18:25:47.831Z,10.80
2019-02-25T18:28:16.143Z,10.70
2019-02-25T18:30:43.622Z,10.70
2019-02-25T18:33:11.106Z,10.60
2019-02-25T18:35:41.134Z,10.60
2019-02-25T18:38:09.286Z,10.60
2019-02-25T18:40:35.893Z,10.60
2019-02-25T18:43:03.047Z,10.50
2019-02-25T18:45:30.264Z,10.40
2019-02-25T18:47:57.728Z,10.40
2019-02-25T18:50:26.851Z,10.50
2019-02-25T18:52:54.645Z,10.50
2019-02-25T18:55:22.749Z,10.50
2019-02-25T18:57:50.324Z,10.30
2019-02-25T19:00:40.121Z,10.50
2019-02-25T19:03:06.123Z,10.90
2019-02-25T19:05:33.693Z,11.00
2019-02-25T19:08:01.979Z,10.60
2019-02-25T19:10:30.266Z,10.30
2019-02-25T19:12:59.137Z,10.10
2019-02-25T19:15:25.999Z,10.10
2019-02-25T19:17:54.392Z,9.80
2019-02-25T19:20:20.939Z,10.00
2019-02-25T19:22:49.176Z,9.70
2019-02-25T19:25:18.146Z,9.70
2019-02-25T19:27:44.133Z,9.90
2019-02-25T19:30:12.381Z,9.90
2019-02-25T19:32:40.466Z,9.80
2019-02-25T19:35:09.734Z,9.70
2019-02-25T19:37:38.238Z,9.90
2019-02-25T19:40:07.236Z,9.90
2019-02-25T19:42:31.547Z,9.60
2019-02-25T19:45:01.557Z,9.40
2019-02-25T19:47:27.153Z,9.20
2019-02-25T19:49:54.642Z,9.20
2019-02-25T19:52:22.120Z,9.00
2019-02-25T19:54:50.830Z,9.10
2019-02-25T19:57:18.674Z,9.10
2019-02-25T19:59:50.261Z,8.80
2019-02-25T20:02:13.677Z,8.80
2019-02-25T20:04:42.293Z,8.70
2019-02-25T20:07:08.742Z,8.70
2019-02-25T20:09:40.299Z,9.00
2019-02-25T20:12:04.445Z,8.80
2019-02-25T20:14:31.927Z,8.70
2019-02-25T20:16:59.391Z,8.50
2019-02-25T20:19:27.641Z,8.60
2019-02-25T20:21:56.774Z,8.60
2019-02-25T20:24:23.799Z,8.80
2019-02-25T20:26:52.622Z,8.70
2019-02-25T20:29:17.579Z,8.70
2019-02-25T20:31:45.046Z,8.60
2019-02-25T20:34:12.505Z,8.60
2019-02-25T20:36:40.013Z,8.50
2019-02-25T20:39:07.471Z,8.30
2019-02-25T20:41:35.145Z,8.40
2019-02-25T20:44:03.283Z,8.40
2019-02-25T20:46:30.879Z,8.30
2019-02-25T20:48:59.899Z,8.30
2019-02-25T20:51:27.652Z,8.30
2019-02-25T20:53:54.879Z,8.30
2019-02-25T20:56:22.312Z,8.10
2019-02-25T20:58:48.312Z,8.40
2019-02-25T21:01:16.847Z,7.90
2019-02-25T21:03:46.027Z,7.90
2019-02-25T21:06:14.391Z,7.80
2019-02-25T21:08:42.252Z,7.80
2019-02-25T21:11:10.960Z,7.80
2019-02-25T21:13:38.077Z,7.70
2019-02-25T21:16:07.440Z,7.80
2019-02-25T21:18:32.497Z,7.80
2019-02-25T21:20:59.958Z,7.90
2019-02-25T21:23:28.185Z,7.80
2019-02-25T21:25:58.083Z,7.80
2019-02-25T21:28:27.065Z,7.70
2019-02-25T21:30:52.837Z,7.70
2019-02-25T21:33:20.025Z,7.70
2019-02-25T21:35:47.094Z,7.60
2019-02-25T21:38:14.566Z,7.50
2019-02-25T21:40:44.024Z,7.50
2019-02-25T21:43:14.452Z,7.50
2019-02-25T21:45:37.857Z,7.40
2019-02-25T21:48:07.471Z,7.40
2019-02-25T21:50:34.044Z,7.40
2019-02-25T21:53:00.655Z,7.50
2019-02-25T21:55:30.215Z,7.30
2019-02-25T21:57:57.370Z,7.60
2019-02-25T22:00:26.830Z,7.60
2019-02-25T22:02:52.713Z,7.50
2019-02-25T22:05:21.272Z,7.50
2019-02-25T22:07:47.539Z,7.70
2019-02-25T22:10:16.843Z,7.50
2019-02-25T22:12:44.434Z,7.50
2019-02-25T22:15:13.148Z,7.40
2019-02-25T22:17:41.313Z,7.30
2019-02-25T22:20:09.826Z,7.40
2019-02-25T22:22:37.445Z,7.40
2019-02-25T22:25:06.637Z,7.20
2019-02-25T22:27:31.879Z,7.20
2019-02-25T22:29:59.976Z,7.30
2019-02-25T22:32:27.108Z,6.90
2019-02-25T22:34:56.061Z,6.80
2019-02-25T22:37:25.006Z,6.70
2019-02-25T22:39:52.500Z,6.70
2019-02-25T22:42:19.732Z,6.80
2019-02-25T22:44:49.215Z,7.00
2019-02-25T22:47:16.120Z,7.00
2019-02-25T22:49:43.089Z,6.50
2019-02-25T22:52:10.595Z,6.50
2019-02-25T22:54:41.032Z,6.90
2019-02-25T22:57:06.321Z,6.80
2019-02-25T22:59:35.521Z,6.80
2019-02-25T23:02:01.329Z,6.70
2019-02-25T23:04:28.893Z,6.80
2019-02-25T23:06:56.355Z,6.70
2019-02-25T23:09:25.666Z,6.50
2019-02-25T23:11:53.115Z,6.60
2019-02-25T23:14:20.445Z,6.60
2019-02-25T23:16:48.008Z,6.70
2019-02-25T23:19:15.797Z,6.50
2019-02-25T23:21:42.862Z,6.50
2019-02-25T23:24:10.326Z,6.70
2019-02-25T23:26:37.785Z,6.70
2019-02-25T23:29:06.244Z,6.60
2019-02-25T23:31:33.750Z,6.60
2019-02-25T23:34:01.206Z,6.40
2019-02-25T23:36:28.767Z,6.30
2019-02-25T23:38:57.231Z,6.10
2019-02-25T23:41:23.807Z,6.20
2019-02-25T23:43:51.262Z,6.40
2019-02-25T23:46:22.992Z,6.00
2019-02-25T23:48:47.023Z,5.90
2019-02-25T23:51:17.281Z,6.10
2019-02-25T23:53:43.520Z,6.00
2019-02-25T23:56:11.494Z,6.00
2019-02-25T23:58:42.320Z,6.20
